ADDS METAR Data INFO
IDs: Format: Raw Decoded Include TAF

Data at: 0715 UTC 19 Oct 2017

K3K3 190655Z AUTO 06003KT 7SM CLR 09/00 A3007 RMK AO2
K3K3 190635Z AUTO 05007KT 10SM CLR 11/00 A3008 RMK AO2
K3K3 190615Z AUTO 05008KT 10SM CLR 11/00 A3008 RMK AO2
K3K3 190555Z AUTO 05009KT 10SM CLR 12/00 A3008 RMK AO2
K3K3 190535Z AUTO 06010KT 10SM CLR 12/00 A3008 RMK AO2
K3K3 190515Z AUTO 05011KT 10SM CLR 12/00 A3009 RMK AO2
K3K3 190455Z AUTO 07009KT 10SM CLR 12/00 A3009 RMK AO2
K3K3 190435Z AUTO 07010KT 7SM CLR 14/00 A3009 RMK AO2
K3K3 190415Z AUTO 06011KT 5SM HZ CLR 13/00 A3009 RMK AO2
K3K3 190355Z AUTO 06012KT 7SM CLR 15/00 A3009 RMK AO2
K3K3 190335Z AUTO 07011KT 10SM CLR 15/00 A3009 RMK AO2
K3K3 190315Z AUTO 07010KT 7SM CLR 15/00 A3009 RMK AO2
K3K3 190255Z AUTO 07011KT 7SM CLR 15/00 A3008 RMK AO2
K3K3 190235Z AUTO 06008KT 10SM CLR 16/00 A3008 RMK AO2
K3K3 190215Z AUTO 10007KT 10SM CLR 17/00 A3007 RMK AO2
K3K3 190155Z AUTO 07010KT 10SM CLR 18/M01 A3007 RMK AO2
K3K3 190135Z AUTO 07011KT 10SM CLR 18/M02 A3007 RMK AO2
K3K3 190115Z AUTO 07010KT 10SM CLR 18/M02 A3006 RMK AO2
K3K3 190055Z AUTO 07010KT 10SM CLR 19/M02 A3005 RMK AO2
K3K3 190035Z AUTO 07009KT 10SM CLR 20/M02 A3005 RMK AO2
K3K3 190015Z AUTO 07010KT 10SM CLR 21/M02 A3005 RMK AO2
K3K3 182355Z AUTO 08008KT 10SM CLR 22/M02 A3004 RMK AO2
K3K3 182335Z AUTO 08010KT 10SM CLR 23/M03 A3004 RMK AO2
K3K3 182315Z AUTO 07007KT 10SM CLR 25/M04 A3003 RMK AO2
K3K3 182255Z AUTO 06008KT 10SM CLR 26/M05 A3002 RMK AO2
K3K3 182235Z AUTO 05009KT 10SM CLR 28/M06 A3002 RMK AO2
K3K3 182215Z AUTO 06009G18KT 10SM CLR 29/M06 A3002 RMK AO2
K3K3 182155Z AUTO 00000KT 10SM CLR 30/M03 A3001 RMK AO2
K3K3 182135Z AUTO 16004KT 10SM CLR 30/M04 A3001 RMK AO2
K3K3 182115Z AUTO 16005KT 10SM CLR 29/M02 A3001 RMK AO2
K3K3 182055Z AUTO 18005KT 10SM CLR 30/M01 A3001 RMK AO2
K3K3 182035Z AUTO 00000KT 10SM CLR 30/M02 A3001 RMK AO2
K3K3 182015Z AUTO 19003KT 10SM CLR 30/00 A3001 RMK AO2
K3K3 181955Z AUTO 15003KT 10SM CLR 29/00 A3001 RMK AO2
K3K3 181935Z AUTO 00000KT 10SM CLR 29/00 A3002 RMK AO2
K3K3 181915Z AUTO 00000KT 10SM CLR 28/01 A3003 RMK AO2
K3K3 181855Z AUTO 00000KT 10SM CLR 27/02 A3004 RMK AO2
K3K3 181835Z AUTO 00000KT 10SM CLR 26/02 A3005 RMK AO2
K3K3 181815Z AUTO 28005KT 10SM CLR 25/03 A3005 RMK AO2
K3K3 181755Z AUTO 27005KT 10SM CLR 23/03 A3006 RMK AO2
K3K3 181735Z AUTO 26007KT 10SM CLR 22/03 A3006 RMK AO2
K3K3 181715Z AUTO 27006KT 10SM CLR 21/03 A3006 RMK AO2
K3K3 181655Z AUTO 28007KT 10SM CLR 18/02 A3006 RMK AO2
K3K3 181635Z AUTO 27009KT 10SM CLR 18/02 A3006 RMK AO2
K3K3 181615Z AUTO 28009KT 10SM CLR 17/02 A3006 RMK AO2
K3K3 181555Z AUTO 27009KT 10SM CLR 15/02 A3007 RMK AO2
K3K3 181535Z AUTO 28010KT 10SM CLR 13/02 A3006 RMK AO2
K3K3 181515Z AUTO 27009KT 10SM CLR 11/02 A3006 RMK AO2
K3K3 181455Z AUTO 27009KT 10SM CLR 10/03 A3005 RMK AO2
K3K3 181435Z AUTO 28008KT 10SM CLR 08/03 A3005 RMK AO2
K3K3 181415Z AUTO 27007KT 10SM CLR 06/02 A3004 RMK AO2
K3K3 181355Z AUTO 27008KT 10SM CLR 05/02 A3003 RMK AO2
K3K3 181335Z AUTO 26005KT 10SM CLR 03/01 A3002 RMK AO2
K3K3 181315Z AUTO 28006KT 10SM CLR 03/01 A3002 RMK AO2
K3K3 181255Z AUTO 27005KT 10SM CLR 02/01 A3001 RMK AO2
K3K3 181235Z AUTO 27005KT 10SM CLR 02/00 A3001 RMK AO2
K3K3 181215Z AUTO 27005KT 10SM CLR 02/00 A3001 RMK AO2
K3K3 181200Z AUTO 27005KT 10SM CLR 02/00 A3000 RMK AO2
K3K3 181135Z AUTO 27005KT 10SM CLR 02/01 A3000 RMK AO2
K3K3 181115Z AUTO 26007KT 10SM CLR 02/01 A3000 RMK AO2
K3K3 181055Z AUTO 28005KT 10SM CLR 02/01 A2999 RMK AO2
K3K3 181035Z AUTO 26006KT 10SM CLR 02/01 A2999 RMK AO2
K3K3 181015Z AUTO 26008KT 10SM CLR 02/01 A2999 RMK AO2
K3K3 180955Z AUTO 28003KT 10SM CLR 03/01 A2999 RMK AO2
K3K3 180935Z AUTO 28006KT 10SM CLR 02/01 A3000 RMK AO2
K3K3 180915Z AUTO 26005KT 10SM CLR 02/01 A3000 RMK AO2
K3K3 180855Z AUTO 29004KT 10SM CLR 03/02 A2999 RMK AO2
K3K3 180835Z AUTO 29003KT 10SM CLR 03/02 A3000 RMK AO2
K3K3 180815Z AUTO 26006KT 10SM CLR 03/02 A3000 RMK AO2
K3K3 180755Z AUTO 00000KT 10SM CLR 03/01 A3000 RMK AO2
K3K3 180735Z AUTO 31003KT 10SM CLR 03/01 A3000 RMK AO2
K3K3 180715Z AUTO 00000KT 10SM CLR 03/02 A3001 RMK AO2
K3K3 180655Z AUTO 35003KT 10SM CLR 04/02 A3001 RMK AO2
K3K3 180635Z AUTO 34004KT 10SM CLR 04/02 A3001 RMK AO2
K3K3 180615Z AUTO 00000KT 10SM CLR 07/02 A3002 RMK AO2
K3K3 180555Z AUTO 00000KT 10SM CLR 05/02 A3002 RMK AO2
K3K3 180535Z AUTO 00000KT 10SM CLR 05/02 A3003 RMK AO2
K3K3 180515Z AUTO 00000KT 10SM CLR 05/02 A3003 RMK AO2
K3K3 180455Z AUTO 36003KT 10SM CLR 06/02 A3004 RMK AO2
K3K3 180435Z AUTO 01003KT 10SM CLR 06/03 A3004 RMK AO2
K3K3 180415Z AUTO 02007KT 10SM CLR 06/03 A3004 RMK AO2
K3K3 180355Z AUTO 01006KT 10SM CLR 07/03 A3005 RMK AO2
K3K3 180335Z AUTO 36005KT 10SM CLR 07/03 A3005 RMK AO2
K3K3 180315Z AUTO 01005KT 10SM CLR 10/03 A3004 RMK AO2
K3K3 180255Z AUTO 11004KT 10SM CLR 10/03 A3003 RMK AO2
K3K3 180235Z AUTO 11004KT 10SM CLR 11/03 A3004 RMK AO2
K3K3 180215Z AUTO 00000KT 10SM CLR 11/03 A3004 RMK AO2
K3K3 180155Z AUTO 12006KT 10SM CLR 12/03 A3004 RMK AO2
K3K3 180135Z AUTO 12006KT 10SM CLR 13/03 A3004 RMK AO2
K3K3 180115Z AUTO 11006KT 10SM CLR 13/03 A3004 RMK AO2
K3K3 180055Z AUTO 13006KT 10SM CLR 15/03 A3004 RMK AO2
K3K3 180035Z AUTO 14007KT 10SM CLR 15/02 A3004 RMK AO2
K3K3 180015Z AUTO 14006KT 10SM CLR 17/02 A3003 RMK AO2
K3K3 172355Z AUTO 14006KT 10SM CLR 20/02 A3003 RMK AO2
K3K3 172335Z AUTO 14005KT 10SM CLR 22/02 A3003 RMK AO2
K3K3 172315Z AUTO 14007KT 10SM CLR 23/01 A3002 RMK AO2
K3K3 172255Z AUTO 14008KT 10SM CLR 25/01 A3002 RMK AO2
K3K3 172235Z AUTO 14008KT 10SM CLR 26/00 A3002 RMK AO2
K3K3 172215Z AUTO 14008KT 10SM CLR 26/00 A3003 RMK AO2
K3K3 172155Z AUTO 14006KT 10SM CLR 27/00 A3003 RMK AO2
K3K3 172135Z AUTO 14010G15KT 10SM CLR 27/00 A3003 RMK AO2
K3K3 172115Z AUTO 10007G14KT 10SM CLR 27/00 A3003 RMK AO2
K3K3 172055Z AUTO 13006KT 10SM CLR 27/M01 A3004 RMK AO2
K3K3 172035Z AUTO 12012KT 10SM CLR 27/M02 A3005 RMK AO2
K3K3 172015Z AUTO 09011KT 10SM CLR 27/M01 A3006 RMK AO2
K3K3 171955Z AUTO 09011G20KT 10SM CLR 27/M02 A3007 RMK AO2
K3K3 171935Z AUTO 09011G15KT 10SM CLR 27/M02 A3009 RMK AO2